createdAt,value
2022-07-25T00:01:57.064Z,62.42
2022-07-25T00:04:25.724Z,62.70
2022-07-25T00:06:53.363Z,62.68
2022-07-25T00:09:20.820Z,62.53
2022-07-25T00:11:48.365Z,62.58
2022-07-25T00:14:15.886Z,62.82
2022-07-25T00:16:43.371Z,63.14
2022-07-25T00:19:11.809Z,63.09
2022-07-25T00:21:39.307Z,63.29
2022-07-25T00:24:07.355Z,63.18
2022-07-25T00:26:39.762Z,63.22
2022-07-25T00:29:07.876Z,63.23
2022-07-25T00:31:35.471Z,63.55
2022-07-25T00:34:04.153Z,63.55
2022-07-25T00:36:31.867Z,63.55
2022-07-25T00:38:59.377Z,63.73
2022-07-25T00:41:27.045Z,63.86
2022-07-25T00:43:54.605Z,63.92
2022-07-25T00:46:22.203Z,64.03
2022-07-25T00:48:51.521Z,64.22
2022-07-25T00:51:19.461Z,64.10
2022-07-25T00:53:47.093Z,64.11
2022-07-25T00:56:14.693Z,63.89
2022-07-25T00:58:42.178Z,64.03
2022-07-25T01:01:09.737Z,63.85
2022-07-25T01:03:37.317Z,63.83
2022-07-25T01:06:04.998Z,63.80
2022-07-25T01:08:33.418Z,63.12
2022-07-25T01:11:00.929Z,63.26
2022-07-25T01:13:28.409Z,63.21
2022-07-25T01:15:55.977Z,63.50
2022-07-25T01:18:23.470Z,63.99
2022-07-25T01:20:51.052Z,63.84
2022-07-25T01:23:18.603Z,63.93
2022-07-25T01:25:46.088Z,63.94
2022-07-25T01:28:13.679Z,64.12
2022-07-25T01:30:41.387Z,64.44
2022-07-25T01:33:08.923Z,64.53
2022-07-25T01:35:41.517Z,64.78
2022-07-25T01:38:10.955Z,64.87
2022-07-25T01:40:38.460Z,65.13
2022-07-25T01:43:06.339Z,65.33
2022-07-25T01:45:34.558Z,65.51
2022-07-25T01:48:02.065Z,65.53
2022-07-25T01:50:29.637Z,66.14
2022-07-25T01:52:57.528Z,65.90
2022-07-25T01:55:25.078Z,65.76
2022-07-25T01:57:53.975Z,66.20
2022-07-25T02:00:21.442Z,66.54
2022-07-25T02:02:49.052Z,66.92
2022-07-25T02:05:16.930Z,66.97
2022-07-25T02:07:44.450Z,66.83
2022-07-25T02:10:12.071Z,67.27
2022-07-25T02:12:39.598Z,67.20
2022-07-25T02:15:07.783Z,67.21
2022-07-25T02:17:35.272Z,67.31
2022-07-25T02:20:02.854Z,67.44
2022-07-25T02:22:30.354Z,67.07
2022-07-25T02:24:57.829Z,67.44
2022-07-25T02:27:25.321Z,67.69
2022-07-25T02:29:52.821Z,67.67
2022-07-25T02:32:20.317Z,67.84
2022-07-25T02:34:47.817Z,68.40
2022-07-25T02:37:15.365Z,69.19
2022-07-25T02:39:42.892Z,69.40
2022-07-25T02:42:10.450Z,69.50
2022-07-25T02:44:37.946Z,69.76
2022-07-25T02:47:05.451Z,69.71
2022-07-25T02:49:32.956Z,69.63
2022-07-25T02:52:00.394Z,69.30
2022-07-25T02:54:27.876Z,69.36
2022-07-25T02:56:55.603Z,69.26
2022-07-25T02:59:23.103Z,68.85
2022-07-25T03:01:50.760Z,68.73
2022-07-25T03:04:18.431Z,68.55
2022-07-25T03:06:47.454Z,68.60
2022-07-25T03:09:14.981Z,68.71
2022-07-25T03:11:42.503Z,68.69
2022-07-25T03:14:10.385Z,68.58
2022-07-25T03:16:38.165Z,68.54
2022-07-25T03:19:10.266Z,68.67
2022-07-25T03:21:40.279Z,68.36
2022-07-25T03:24:08.242Z,68.36
2022-07-25T03:26:36.060Z,68.42
2022-07-25T03:29:04.194Z,68.48
2022-07-25T03:31:31.712Z,68.56
2022-07-25T03:33:59.182Z,68.33
2022-07-25T03:36:26.679Z,68.17
2022-07-25T03:38:55.830Z,68.38
2022-07-25T03:41:23.542Z,68.62
2022-07-25T03:43:54.767Z,68.03
2022-07-25T03:46:22.319Z,68.08
2022-07-25T03:48:49.884Z,67.97
2022-07-25T03:51:17.484Z,68.15
2022-07-25T03:54:03.635Z,68.43
2022-07-25T03:56:43.247Z,68.56
2022-07-25T03:59:12.931Z,68.76
2022-07-25T04:01:40.715Z,68.05
2022-07-25T04:04:08.881Z,68.12
2022-07-25T04:06:37.027Z,67.69
2022-07-25T04:09:05.069Z,67.65
2022-07-25T04:11:32.771Z,67.07
2022-07-25T04:14:00.274Z,67.07
2022-07-25T04:16:28.103Z,67.09
2022-07-25T04:18:57.298Z,66.63
2022-07-25T04:21:25.887Z,66.66
2022-07-25T04:23:54.219Z,66.65
2022-07-25T04:26:21.730Z,66.66
2022-07-25T04:28:49.622Z,66.39
2022-07-25T04:31:17.609Z,66.04
2022-07-25T04:33:45.275Z,65.92
2022-07-25T04:36:13.319Z,66.12
2022-07-25T04:38:41.091Z,65.69
2022-07-25T04:41:08.671Z,65.22
2022-07-25T04:43:36.175Z,65.08
2022-07-25T04:46:04.071Z,64.91
2022-07-25T04:48:31.634Z,64.70
2022-07-25T04:50:59.221Z,64.00
2022-07-25T04:53:26.720Z,63.68
2022-07-25T04:55:54.245Z,63.40
2022-07-25T04:58:21.715Z,63.58
2022-07-25T05:00:49.374Z,63.56
2022-07-25T05:03:17.026Z,62.87
2022-07-25T05:05:44.555Z,62.70
2022-07-25T05:08:12.119Z,62.64
2022-07-25T05:10:39.699Z,62.73
2022-07-25T05:13:07.271Z,62.74
2022-07-25T05:15:34.826Z,62.79
2022-07-25T05:18:02.315Z,62.80
2022-07-25T05:20:30.214Z,62.55
2022-07-25T05:22:57.801Z,62.32
2022-07-25T05:25:25.363Z,61.85
2022-07-25T05:27:57.412Z,62.00
2022-07-25T05:30:25.278Z,61.22
2022-07-25T05:32:52.780Z,60.60
2022-07-25T05:35:20.326Z,60.35
2022-07-25T05:37:48.515Z,59.73
2022-07-25T05:40:16.032Z,59.40
2022-07-25T05:42:43.568Z,59.31
2022-07-25T05:45:11.245Z,58.95
2022-07-25T05:47:38.807Z,58.25
2022-07-25T05:50:07.784Z,57.65
2022-07-25T05:52:35.278Z,57.57
2022-07-25T05:55:02.897Z,57.18
2022-07-25T05:57:30.460Z,57.60
2022-07-25T05:59:57.961Z,57.37
2022-07-25T06:02:25.648Z,56.60
2022-07-25T06:04:53.374Z,56.12
2022-07-25T06:07:20.845Z,54.39
2022-07-25T06:09:48.342Z,55.00
2022-07-25T06:12:15.860Z,54.04
2022-07-25T06:14:43.538Z,52.85
2022-07-25T06:17:11.106Z,52.54
2022-07-25T06:19:38.756Z,51.85
2022-07-25T06:22:08.086Z,51.75
2022-07-25T06:24:36.186Z,51.69
2022-07-25T06:27:03.743Z,51.82
2022-07-25T06:29:31.241Z,50.86
2022-07-25T06:31:58.795Z,49.78
2022-07-25T06:34:28.774Z,50.07
2022-07-25T06:36:57.471Z,48.33
2022-07-25T06:39:26.047Z,49.24
2022-07-25T06:41:53.639Z,49.29
2022-07-25T06:44:21.131Z,50.12
2022-07-25T06:46:48.680Z,49.27
2022-07-25T06:49:17.843Z,50.19
2022-07-25T06:51:45.340Z,51.42
2022-07-25T06:54:13.747Z,52.10
2022-07-25T06:56:41.194Z,52.75
2022-07-25T06:59:08.683Z,53.03
2022-07-25T07:01:36.444Z,53.23
2022-07-25T07:04:05.280Z,53.26
2022-07-25T07:06:32.987Z,52.90
2022-07-25T07:09:00.525Z,53.75
2022-07-25T07:11:28.518Z,53.21
2022-07-25T07:13:56.090Z,53.64
2022-07-25T07:16:23.609Z,53.06
2022-07-25T07:18:51.149Z,53.68
2022-07-25T07:21:21.346Z,53.61
2022-07-25T07:23:49.659Z,53.34
2022-07-25T07:26:20.971Z,53.28
2022-07-25T07:28:48.560Z,53.16
2022-07-25T07:31:18.798Z,53.30
2022-07-25T07:33:46.760Z,53.21
2022-07-25T07:36:14.349Z,53.27
2022-07-25T07:38:41.982Z,54.02
2022-07-25T07:41:09.534Z,54.10
2022-07-25T07:43:37.329Z,53.62
2022-07-25T07:46:05.048Z,53.76
2022-07-25T07:48:33.915Z,53.77
2022-07-25T07:51:02.989Z,53.38
2022-07-25T07:53:44.733Z,53.53
